METAR AND TAF INFORMATION
METAR FOR LFKS
ADDS - METARS form results

(2120 UTC 24 February 2020)
Data provider http://aviationweather.gov/metar/data/
 
METAR text: LFKS 242100Z AUTO 27005KT 260V320 CAVOK 09/08 Q1019
Conditions at: LFKS (SOLENZARA (FAFB), FR) observed 2100 UTC 24 February 2020
Temperature: 9.0°C (48°F)
Dewpoint: 8.0°C (46°F) [RH = 93%]
Pressure (altimeter): 30.09 inches Hg (1019.0 mb)
Winds: from the W (270 degrees) at 6 MPH (5 knots; 2.6 m/s)
Visibility: 6 or more miles (10+ km)
Ceiling: ceiling and visibility are OK
Clouds: unknown
Weather: no significant weather observed at this time

METAR text: LFKS 242030Z AUTO 27005KT CAVOK 10/08 Q1019
Conditions at: LFKS (SOLENZARA (FAFB), FR) observed 2030 UTC 24 February 2020
Temperature: 10.0°C (50°F)
Dewpoint: 8.0°C (46°F) [RH = 87%]
Pressure (altimeter): 30.09 inches Hg (1019.0 mb)
Winds: from the W (270 degrees) at 6 MPH (5 knots; 2.6 m/s)
Visibility: 6 or more miles (10+ km)
Ceiling: ceiling and visibility are OK
Clouds: unknown
Weather: no significant weather observed at this time

Forecast for: LFKS (SOLENZARA (FAFB), FR)
Text: TAF LFKS 241400Z 2415/2515 09005KT 9999 FEW015
Forecast period: 1500 UTC 24 February 2020 to 0000 UTC 25 February 2020
Forecast type: FROM: standard forecast or significant change
Winds: from the E (90 degrees) at 6 MPH (5 knots; 2.6 m/s)
Visibility: 6 or more miles 10+ km)
Ceiling: at least 12,000 feet AGL
Clouds: few clouds at 1500 feet AGL
Weather: no significant weather forecast for this period
Text: BECMG 2500/2502 BKN012
Forecast period: 0000 to 1500 UTC 25 February 2020
Forecast type: BECOMING: Conditions expected to become as follows by 0200 UTC 25 February 2020
Winds: from the E (90 degrees) at 6 MPH (5 knots; 2.6 m/s)
Visibility: 6 or more miles 10+ km)
Ceiling: 1200 feet AGL
Clouds: broken clouds at 1200 feet AGL
Weather: no significant weather forecast for this period

 AIRPORT MAP

 RUNWAY INFORMATION
Runway 18 Runway length 8619 ft Runway width 148 ft
Runway elevation 20 ft Runway displaced threshold 0 ft Runway heading 179
Runway 36 Runway length 8619 ft Runway width 148 ft
Runway elevation 18 ft Runway displaced threshold 0 ft Runway heading 359

 AIRPORT FREQUENCIES
Type APP Name APP Frequency 33.9 MHZ
Type APP Name APP Frequency 119.9 MHZ
Type TWR Name TWR Frequency 118.35 MHZ

 AIRPORT NEAR NAVIGATION AIDS
Type TACAN Name Solenzara Frequency 114000 KHZ
Type NDB Name Solenzara Frequency 350 KHZ